sensor_id;sensor_type;location;lat;lon;timestamp;P1;durP1;ratioP1;P2;durP2;ratioP2
58470;SDS011;44258;51.288;12.068;2023-03-21T00:02:11;9.43;;;3.75;;
58470;SDS011;44258;51.288;12.068;2023-03-21T00:04:41;9.88;;;3.88;;
58470;SDS011;44258;51.288;12.068;2023-03-21T00:07:07;9.20;;;3.28;;
58470;SDS011;44258;51.288;12.068;2023-03-21T00:09:34;10.13;;;3.50;;
58470;SDS011;44258;51.288;12.068;2023-03-21T00:12:00;8.63;;;3.50;;
58470;SDS011;44258;51.288;12.068;2023-03-21T00:14:31;9.00;;;3.78;;
58470;SDS011;44258;51.288;12.068;2023-03-21T00:16:58;9.43;;;3.67;;
58470;SDS011;44258;51.288;12.068;2023-03-21T00:19:26;10.38;;;3.88;;
58470;SDS011;44258;51.288;12.068;2023-03-21T00:21:53;10.20;;;4.10;;
58470;SDS011;44258;51.288;12.068;2023-03-21T00:24:20;10.60;;;4.13;;
58470;SDS011;44258;51.288;12.068;2023-03-21T00:26:47;10.80;;;4.45;;
58470;SDS011;44258;51.288;12.068;2023-03-21T00:29:15;11.63;;;4.57;;
58470;SDS011;44258;51.288;12.068;2023-03-21T00:31:42;11.25;;;4.63;;
58470;SDS011;44258;51.288;12.068;2023-03-21T00:34:09;10.27;;;3.97;;
58470;SDS011;44258;51.288;12.068;2023-03-21T00:36:37;9.75;;;4.20;;
58470;SDS011;44258;51.288;12.068;2023-03-21T00:39:04;10.55;;;3.90;;
58470;SDS011;44258;51.288;12.068;2023-03-21T00:41:31;9.73;;;3.92;;
58470;SDS011;44258;51.288;12.068;2023-03-21T00:43:58;9.70;;;3.72;;
58470;SDS011;44258;51.288;12.068;2023-03-21T00:46:24;9.18;;;3.90;;
58470;SDS011;44258;51.288;12.068;2023-03-21T00:48:51;11.60;;;3.97;;
58470;SDS011;44258;51.288;12.068;2023-03-21T00:51:18;8.48;;;3.65;;
58470;SDS011;44258;51.288;12.068;2023-03-21T00:53:52;11.10;;;4.20;;
58470;SDS011;44258;51.288;12.068;2023-03-21T00:56:21;11.27;;;3.92;;
58470;SDS011;44258;51.288;12.068;2023-03-21T00:58:48;11.65;;;3.90;;
58470;SDS011;44258;51.288;12.068;2023-03-21T01:01:15;12.05;;;3.88;;
58470;SDS011;44258;51.288;12.068;2023-03-21T01:03:42;10.27;;;4.10;;
58470;SDS011;44258;51.288;12.068;2023-03-21T01:06:15;9.82;;;3.80;;
58470;SDS011;44258;51.288;12.068;2023-03-21T01:08:45;14.55;;;4.30;;
58470;SDS011;44258;51.288;12.068;2023-03-21T01:11:17;10.73;;;4.57;;
58470;SDS011;44258;51.288;12.068;2023-03-21T01:13:47;12.13;;;4.72;;
58470;SDS011;44258;51.288;12.068;2023-03-21T01:16:14;11.18;;;5.18;;
58470;SDS011;44258;51.288;12.068;2023-03-21T01:18:40;15.60;;;6.43;;
58470;SDS011;44258;51.288;12.068;2023-03-21T01:21:08;17.02;;;7.85;;
58470;SDS011;44258;51.288;12.068;2023-03-21T01:23:38;15.68;;;7.03;;
58470;SDS011;44258;51.288;12.068;2023-03-21T01:26:06;15.73;;;7.40;;
58470;SDS011;44258;51.288;12.068;2023-03-21T01:28:35;13.02;;;5.70;;
58470;SDS011;44258;51.288;12.068;2023-03-21T01:31:03;13.80;;;5.53;;
58470;SDS011;44258;51.288;12.068;2023-03-21T01:33:31;13.43;;;5.88;;
58470;SDS011;44258;51.288;12.068;2023-03-21T01:35:59;10.88;;;4.97;;
58470;SDS011;44258;51.288;12.068;2023-03-21T01:38:26;10.52;;;4.90;;
58470;SDS011;44258;51.288;12.068;2023-03-21T01:40:53;15.48;;;5.05;;
58470;SDS011;44258;51.288;12.068;2023-03-21T01:43:21;12.60;;;5.18;;
58470;SDS011;44258;51.288;12.068;2023-03-21T01:48:54;10.57;;;4.15;;
58470;SDS011;44258;51.288;12.068;2023-03-21T01:51:24;10.65;;;4.20;;
58470;SDS011;44258;51.288;12.068;2023-03-21T01:53:52;11.07;;;4.38;;
58470;SDS011;44258;51.288;12.068;2023-03-21T01:56:23;11.40;;;4.57;;
58470;SDS011;44258;51.288;12.068;2023-03-21T01:58:54;10.20;;;3.70;;
58470;SDS011;44258;51.288;12.068;2023-03-21T02:01:28;9.43;;;3.58;;
58470;SDS011;44258;51.288;12.068;2023-03-21T02:03:58;12.73;;;4.32;;
58470;SDS011;44258;51.288;12.068;2023-03-21T02:06:31;9.45;;;3.97;;
58470;SDS011;44258;51.288;12.068;2023-03-21T02:09:03;12.68;;;4.10;;
58470;SDS011;44258;51.288;12.068;2023-03-21T02:11:34;10.27;;;3.95;;
58470;SDS011;44258;51.288;12.068;2023-03-21T02:14:03;9.88;;;3.95;;
58470;SDS011;44258;51.288;12.068;2023-03-21T02:16:35;11.00;;;4.00;;
58470;SDS011;44258;51.288;12.068;2023-03-21T02:19:19;10.77;;;3.80;;
58470;SDS011;44258;51.288;12.068;2023-03-21T02:22:14;11.13;;;3.95;;
58470;SDS011;44258;51.288;12.068;2023-03-21T02:28:04;11.25;;;4.00;;
58470;SDS011;44258;51.288;12.068;2023-03-21T02:30:41;11.93;;;4.20;;
58470;SDS011;44258;51.288;12.068;2023-03-21T02:33:27;9.90;;;3.88;;
58470;SDS011;44258;51.288;12.068;2023-03-21T02:36:16;12.70;;;4.43;;
58470;SDS011;44258;51.288;12.068;2023-03-21T02:38:54;9.60;;;4.05;;
58470;SDS011;44258;51.288;12.068;2023-03-21T02:41:31;9.70;;;3.92;;
58470;SDS011;44258;51.288;12.068;2023-03-21T02:44:04;11.05;;;3.90;;
58470;SDS011;44258;51.288;12.068;2023-03-21T02:46:37;9.77;;;3.95;;
58470;SDS011;44258;51.288;12.068;2023-03-21T02:49:10;11.85;;;5.00;;
58470;SDS011;44258;51.288;12.068;2023-03-21T02:51:42;11.50;;;4.13;;
58470;SDS011;44258;51.288;12.068;2023-03-21T02:54:13;10.18;;;4.20;;
58470;SDS011;44258;51.288;12.068;2023-03-21T02:56:45;11.13;;;4.45;;
58470;SDS011;44258;51.288;12.068;2023-03-21T02:59:14;11.45;;;4.60;;
58470;SDS011;44258;51.288;12.068;2023-03-21T03:01:43;12.38;;;4.40;;
58470;SDS011;44258;51.288;12.068;2023-03-21T03:07:02;11.35;;;4.10;;
58470;SDS011;44258;51.288;12.068;2023-03-21T03:09:43;9.77;;;4.10;;
58470;SDS011;44258;51.288;12.068;2023-03-21T03:12:25;11.27;;;4.28;;
58470;SDS011;44258;51.288;12.068;2023-03-21T03:15:02;12.07;;;4.90;;
58470;SDS011;44258;51.288;12.068;2023-03-21T03:17:39;12.88;;;4.78;;
58470;SDS011;44258;51.288;12.068;2023-03-21T03:20:18;12.40;;;4.80;;
58470;SDS011;44258;51.288;12.068;2023-03-21T03:23:02;12.52;;;4.90;;
58470;SDS011;44258;51.288;12.068;2023-03-21T03:25:44;14.63;;;5.50;;
58470;SDS011;44258;51.288;12.068;2023-03-21T03:28:16;10.40;;;4.45;;
58470;SDS011;44258;51.288;12.068;2023-03-21T03:30:47;11.30;;;4.95;;
58470;SDS011;44258;51.288;12.068;2023-03-21T03:33:15;9.52;;;4.25;;
58470;SDS011;44258;51.288;12.068;2023-03-21T03:35:47;11.35;;;4.57;;
58470;SDS011;44258;51.288;12.068;2023-03-21T03:38:16;12.32;;;4.38;;
58470;SDS011;44258;51.288;12.068;2023-03-21T03:40:50;14.27;;;4.43;;
58470;SDS011;44258;51.288;12.068;2023-03-21T03:43:20;10.50;;;4.50;;
58470;SDS011;44258;51.288;12.068;2023-03-21T03:45:52;12.00;;;5.10;;
58470;SDS011;44258;51.288;12.068;2023-03-21T03:48:24;14.13;;;5.35;;
58470;SDS011;44258;51.288;12.068;2023-03-21T03:50:55;10.35;;;4.20;;
58470;SDS011;44258;51.288;12.068;2023-03-21T03:53:28;11.95;;;4.97;;
58470;SDS011;44258;51.288;12.068;2023-03-21T03:56:02;12.13;;;4.53;;
58470;SDS011;44258;51.288;12.068;2023-03-21T03:58:33;12.88;;;5.00;;
58470;SDS011;44258;51.288;12.068;2023-03-21T04:01:03;10.52;;;4.30;;
58470;SDS011;44258;51.288;12.068;2023-03-21T04:03:31;10.68;;;4.82;;
58470;SDS011;44258;51.288;12.068;2023-03-21T04:05:59;10.95;;;4.13;;
58470;SDS011;44258;51.288;12.068;2023-03-21T04:08:26;11.07;;;4.88;;
58470;SDS011;44258;51.288;12.068;2023-03-21T04:10:52;12.40;;;4.80;;
58470;SDS011;44258;51.288;12.068;2023-03-21T04:13:21;11.95;;;4.80;;
58470;SDS011;44258;51.288;12.068;2023-03-21T04:15:48;12.18;;;4.18;;
58470;SDS011;44258;51.288;12.068;2023-03-21T04:18:14;10.50;;;4.45;;
58470;SDS011;44258;51.288;12.068;2023-03-21T04:20:42;11.95;;;4.18;;
58470;SDS011;44258;51.288;12.068;2023-03-21T04:23:09;11.35;;;4.70;;
58470;SDS011;44258;51.288;12.068;2023-03-21T04:25:37;12.18;;;4.47;;
58470;SDS011;44258;51.288;12.068;2023-03-21T04:28:04;12.38;;;4.80;;
58470;SDS011;44258;51.288;12.068;2023-03-21T04:30:32;13.75;;;5.00;;
58470;SDS011;44258;51.288;12.068;2023-03-21T04:32:59;11.70;;;5.10;;
58470;SDS011;44258;51.288;12.068;2023-03-21T04:35:26;12.07;;;5.00;;
58470;SDS011;44258;51.288;12.068;2023-03-21T04:37:53;22.05;;;5.80;;
58470;SDS011;44258;51.288;12.068;2023-03-21T04:40:20;13.05;;;4.90;;
58470;SDS011;44258;51.288;12.068;2023-03-21T04:42:49;12.80;;;4.55;;
58470;SDS011;44258;51.288;12.068;2023-03-21T04:45:16;11.57;;;4.55;;
58470;SDS011;44258;51.288;12.068;2023-03-21T04:47:45;13.10;;;5.32;;
58470;SDS011;44258;51.288;12.068;2023-03-21T04:50:11;15.35;;;5.28;;
58470;SDS011;44258;51.288;12.068;2023-03-21T04:52:41;12.88;;;4.32;;
58470;SDS011;44258;51.288;12.068;2023-03-21T04:55:08;12.45;;;4.47;;
58470;SDS011;44258;51.288;12.068;2023-03-21T04:57:35;11.00;;;3.70;;
58470;SDS011;44258;51.288;12.068;2023-03-21T05:00:03;13.82;;;4.50;;
58470;SDS011;44258;51.288;12.068;2023-03-21T05:02:34;10.98;;;3.95;;
58470;SDS011;44258;51.288;12.068;2023-03-21T05:05:02;10.98;;;4.68;;
58470;SDS011;44258;51.288;12.068;2023-03-21T05:07:30;11.82;;;4.43;;
58470;SDS011;44258;51.288;12.068;2023-03-21T05:09:57;10.50;;;4.00;;
58470;SDS011;44258;51.288;12.068;2023-03-21T05:12:23;13.50;;;5.25;;
58470;SDS011;44258;51.288;12.068;2023-03-21T05:14:50;13.73;;;4.88;;
58470;SDS011;44258;51.288;12.068;2023-03-21T05:17:17;11.77;;;4.70;;
58470;SDS011;44258;51.288;12.068;2023-03-21T05:19:47;11.55;;;4.90;;
58470;SDS011;44258;51.288;12.068;2023-03-21T05:22:16;13.07;;;4.60;;
58470;SDS011;44258;51.288;12.068;2023-03-21T05:24:43;12.25;;;5.00;;
58470;SDS011;44258;51.288;12.068;2023-03-21T05:27:14;12.90;;;4.72;;
58470;SDS011;44258;51.288;12.068;2023-03-21T05:30:02;13.80;;;4.63;;
58470;SDS011;44258;51.288;12.068;2023-03-21T05:32:31;13.30;;;4.70;;
58470;SDS011;44258;51.288;12.068;2023-03-21T05:34:57;10.88;;;4.32;;
58470;SDS011;44258;51.288;12.068;2023-03-21T05:37:26;12.68;;;4.32;;
58470;SDS011;44258;51.288;12.068;2023-03-21T05:39:55;13.50;;;4.57;;
58470;SDS011;44258;51.288;12.068;2023-03-21T05:42:22;11.30;;;4.50;;
58470;SDS011;44258;51.288;12.068;2023-03-21T05:44:50;9.55;;;4.15;;
58470;SDS011;44258;51.288;12.068;2023-03-21T05:47:17;11.48;;;4.30;;
58470;SDS011;44258;51.288;12.068;2023-03-21T05:49:44;12.00;;;4.55;;
58470;SDS011;44258;51.288;12.068;2023-03-21T05:52:11;11.40;;;4.45;;
58470;SDS011;44258;51.288;12.068;2023-03-21T05:54:39;14.85;;;4.63;;
58470;SDS011;44258;51.288;12.068;2023-03-21T05:57:06;12.70;;;4.68;;
58470;SDS011;44258;51.288;12.068;2023-03-21T05:59:33;12.20;;;5.05;;
58470;SDS011;44258;51.288;12.068;2023-03-21T06:02:00;12.80;;;4.85;;
58470;SDS011;44258;51.288;12.068;2023-03-21T06:04:27;11.75;;;4.40;;
58470;SDS011;44258;51.288;12.068;2023-03-21T06:06:54;14.02;;;5.15;;
58470;SDS011;44258;51.288;12.068;2023-03-21T06:09:21;12.18;;;4.30;;
58470;SDS011;44258;51.288;12.068;2023-03-21T06:11:51;13.57;;;4.70;;
58470;SDS011;44258;51.288;12.068;2023-03-21T06:14:19;14.07;;;5.22;;
58470;SDS011;44258;51.288;12.068;2023-03-21T06:16:46;13.70;;;4.78;;
58470;SDS011;44258;51.288;12.068;2023-03-21T06:19:13;13.82;;;4.10;;
58470;SDS011;44258;51.288;12.068;2023-03-21T06:21:40;11.45;;;4.15;;
58470;SDS011;44258;51.288;12.068;2023-03-21T06:24:07;12.00;;;4.53;;
58470;SDS011;44258;51.288;12.068;2023-03-21T06:26:37;14.65;;;4.70;;
58470;SDS011;44258;51.288;12.068;2023-03-21T06:29:05;13.43;;;3.80;;
58470;SDS011;44258;51.288;12.068;2023-03-21T06:31:32;11.43;;;4.38;;
58470;SDS011;44258;51.288;12.068;2023-03-21T06:33:58;9.60;;;4.15;;
58470;SDS011;44258;51.288;12.068;2023-03-21T06:36:25;11.90;;;3.97;;
58470;SDS011;44258;51.288;12.068;2023-03-21T06:38:52;11.23;;;4.47;;
58470;SDS011;44258;51.288;12.068;2023-03-21T06:41:19;10.82;;;4.35;;
58470;SDS011;44258;51.288;12.068;2023-03-21T06:43:45;12.48;;;4.43;;
58470;SDS011;44258;51.288;12.068;2023-03-21T06:46:14;11.20;;;4.03;;
58470;SDS011;44258;51.288;12.068;2023-03-21T06:48:41;12.93;;;4.80;;
58470;SDS011;44258;51.288;12.068;2023-03-21T06:51:09;12.90;;;4.40;;
58470;SDS011;44258;51.288;12.068;2023-03-21T06:53:36;11.48;;;4.20;;
58470;SDS011;44258;51.288;12.068;2023-03-21T06:56:06;9.75;;;3.80;;
58470;SDS011;44258;51.288;12.068;2023-03-21T06:58:33;14.00;;;4.00;;
58470;SDS011;44258;51.288;12.068;2023-03-21T07:01:00;12.07;;;4.05;;
58470;SDS011;44258;51.288;12.068;2023-03-21T07:03:30;13.18;;;4.25;;
58470;SDS011;44258;51.288;12.068;2023-03-21T07:05:57;11.23;;;4.32;;
58470;SDS011;44258;51.288;12.068;2023-03-21T07:08:23;12.00;;;4.55;;
58470;SDS011;44258;51.288;12.068;2023-03-21T07:10:54;10.13;;;4.18;;
58470;SDS011;44258;51.288;12.068;2023-03-21T07:13:21;11.88;;;4.05;;
58470;SDS011;44258;51.288;12.068;2023-03-21T07:15:48;10.13;;;4.32;;
58470;SDS011;44258;51.288;12.068;2023-03-21T07:18:15;11.35;;;4.70;;
58470;SDS011;44258;51.288;12.068;2023-03-21T07:20:47;11.25;;;3.85;;
58470;SDS011;44258;51.288;12.068;2023-03-21T07:23:15;12.48;;;4.25;;
58470;SDS011;44258;51.288;12.068;2023-03-21T07:25:42;9.48;;;3.80;;
58470;SDS011;44258;51.288;12.068;2023-03-21T07:28:09;11.43;;;3.22;;
58470;SDS011;44258;51.288;12.068;2023-03-21T07:30:36;11.23;;;3.92;;
58470;SDS011;44258;51.288;12.068;2023-03-21T07:33:03;12.48;;;4.00;;
58470;SDS011;44258;51.288;12.068;2023-03-21T07:35:31;11.80;;;4.07;;
58470;SDS011;44258;51.288;12.068;2023-03-21T07:38:01;11.27;;;4.07;;
58470;SDS011;44258;51.288;12.068;2023-03-21T07:40:28;10.50;;;3.67;;
58470;SDS011;44258;51.288;12.068;2023-03-21T07:42:55;9.07;;;3.40;;
58470;SDS011;44258;51.288;12.068;2023-03-21T07:45:22;11.85;;;4.22;;
58470;SDS011;44258;51.288;12.068;2023-03-21T07:47:51;9.70;;;3.67;;
58470;SDS011;44258;51.288;12.068;2023-03-21T07:50:21;10.05;;;3.58;;
58470;SDS011;44258;51.288;12.068;2023-03-21T07:52:48;9.43;;;3.90;;
58470;SDS011;44258;51.288;12.068;2023-03-21T07:55:16;12.35;;;3.78;;
58470;SDS011;44258;51.288;12.068;2023-03-21T07:57:43;11.82;;;3.78;;
58470;SDS011;44258;51.288;12.068;2023-03-21T08:00:14;14.70;;;3.97;;
58470;SDS011;44258;51.288;12.068;2023-03-21T08:02:47;12.60;;;4.10;;
58470;SDS011;44258;51.288;12.068;2023-03-21T08:05:19;10.25;;;3.55;;
58470;SDS011;44258;51.288;12.068;2023-03-21T08:07:47;11.10;;;3.20;;
58470;SDS011;44258;51.288;12.068;2023-03-21T08:10:16;11.15;;;4.20;;
58470;SDS011;44258;51.288;12.068;2023-03-21T08:12:43;10.70;;;3.40;;
58470;SDS011;44258;51.288;12.068;2023-03-21T08:15:11;10.57;;;3.70;;
58470;SDS011;44258;51.288;12.068;2023-03-21T08:17:38;11.27;;;3.60;;
58470;SDS011;44258;51.288;12.068;2023-03-21T08:20:07;10.32;;;3.28;;
58470;SDS011;44258;51.288;12.068;2023-03-21T08:22:37;8.50;;;3.35;;
58470;SDS011;44258;51.288;12.068;2023-03-21T08:25:18;8.95;;;3.40;;
58470;SDS011;44258;51.288;12.068;2023-03-21T08:27:49;9.95;;;3.55;;
58470;SDS011;44258;51.288;12.068;2023-03-21T08:30:17;11.73;;;3.60;;
58470;SDS011;44258;51.288;12.068;2023-03-21T08:32:46;11.25;;;3.97;;
58470;SDS011;44258;51.288;12.068;2023-03-21T08:35:13;10.60;;;3.47;;
58470;SDS011;44258;51.288;12.068;2023-03-21T08:37:43;12.48;;;3.42;;
58470;SDS011;44258;51.288;12.068;2023-03-21T08:40:11;12.40;;;4.13;;
58470;SDS011;44258;51.288;12.068;2023-03-21T08:42:42;8.25;;;3.60;;
58470;SDS011;44258;51.288;12.068;2023-03-21T08:45:11;8.70;;;3.15;;
58470;SDS011;44258;51.288;12.068;2023-03-21T08:47:39;9.15;;;3.88;;
58470;SDS011;44258;51.288;12.068;2023-03-21T08:50:07;9.63;;;3.72;;
58470;SDS011;44258;51.288;12.068;2023-03-21T08:52:40;10.85;;;3.75;;
58470;SDS011;44258;51.288;12.068;2023-03-21T08:55:07;12.82;;;3.65;;
58470;SDS011;44258;51.288;12.068;2023-03-21T08:57:34;9.88;;;3.60;;
58470;SDS011;44258;51.288;12.068;2023-03-21T09:00:03;7.32;;;3.33;;
58470;SDS011;44258;51.288;12.068;2023-03-21T09:02:37;10.27;;;3.45;;
58470;SDS011;44258;51.288;12.068;2023-03-21T09:05:04;9.88;;;3.33;;
58470;SDS011;44258;51.288;12.068;2023-03-21T09:07:34;8.90;;;3.38;;
58470;SDS011;44258;51.288;12.068;2023-03-21T09:10:01;11.48;;;3.72;;
58470;SDS011;44258;51.288;12.068;2023-03-21T09:12:28;10.70;;;3.47;;
58470;SDS011;44258;51.288;12.068;2023-03-21T09:14:58;8.93;;;3.47;;
58470;SDS011;44258;51.288;12.068;2023-03-21T09:17:28;10.27;;;3.25;;
58470;SDS011;44258;51.288;12.068;2023-03-21T09:19:56;7.95;;;3.25;;
58470;SDS011;44258;51.288;12.068;2023-03-21T09:22:27;8.13;;;3.03;;
58470;SDS011;44258;51.288;12.068;2023-03-21T09:24:55;9.10;;;3.60;;
58470;SDS011;44258;51.288;12.068;2023-03-21T09:27:26;9.85;;;3.67;;
58470;SDS011;44258;51.288;12.068;2023-03-21T09:29:53;10.18;;;3.80;;
58470;SDS011;44258;51.288;12.068;2023-03-21T09:32:22;13.80;;;4.10;;
58470;SDS011;44258;51.288;12.068;2023-03-21T09:34:50;11.23;;;3.47;;
58470;SDS011;44258;51.288;12.068;2023-03-21T09:37:19;10.75;;;3.80;;
58470;SDS011;44258;51.288;12.068;2023-03-21T09:39:46;9.38;;;3.45;;
58470;SDS011;44258;51.288;12.068;2023-03-21T09:42:18;8.30;;;3.38;;
58470;SDS011;44258;51.288;12.068;2023-03-21T09:44:54;8.93;;;3.30;;
58470;SDS011;44258;51.288;12.068;2023-03-21T09:47:31;11.43;;;3.33;;
58470;SDS011;44258;51.288;12.068;2023-03-21T09:50:12;9.40;;;4.00;;
58470;SDS011;44258;51.288;12.068;2023-03-21T09:52:45;9.65;;;3.40;;
58470;SDS011;44258;51.288;12.068;2023-03-21T09:55:15;11.23;;;3.47;;
58470;SDS011;44258;51.288;12.068;2023-03-21T09:57:46;9.48;;;3.40;;
58470;SDS011;44258;51.288;12.068;2023-03-21T10:00:17;9.10;;;3.30;;
58470;SDS011;44258;51.288;12.068;2023-03-21T10:02:56;10.90;;;4.13;;
58470;SDS011;44258;51.288;12.068;2023-03-21T10:05:33;10.45;;;4.05;;
58470;SDS011;44258;51.288;12.068;2023-03-21T10:08:05;10.23;;;4.07;;
58470;SDS011;44258;51.288;12.068;2023-03-21T10:10:36;10.90;;;3.95;;
58470;SDS011;44258;51.288;12.068;2023-03-21T10:13:11;10.55;;;3.80;;
58470;SDS011;44258;51.288;12.068;2023-03-21T10:15:41;10.07;;;3.47;;
58470;SDS011;44258;51.288;12.068;2023-03-21T10:18:09;10.48;;;3.92;;
58470;SDS011;44258;51.288;12.068;2023-03-21T10:20:42;11.32;;;4.05;;
58470;SDS011;44258;51.288;12.068;2023-03-21T10:23:11;14.20;;;4.53;;
58470;SDS011;44258;51.288;12.068;2023-03-21T10:25:43;9.55;;;3.85;;
58470;SDS011;44258;51.288;12.068;2023-03-21T10:28:13;10.05;;;4.07;;
58470;SDS011;44258;51.288;12.068;2023-03-21T10:30:43;15.27;;;4.35;;
58470;SDS011;44258;51.288;12.068;2023-03-21T10:33:14;13.30;;;4.50;;
58470;SDS011;44258;51.288;12.068;2023-03-21T10:35:48;10.90;;;4.03;;
58470;SDS011;44258;51.288;12.068;2023-03-21T10:38:17;9.57;;;4.05;;
58470;SDS011;44258;51.288;12.068;2023-03-21T10:40:46;11.57;;;4.00;;
58470;SDS011;44258;51.288;12.068;2023-03-21T10:43:17;11.57;;;4.20;;
58470;SDS011;44258;51.288;12.068;2023-03-21T10:45:51;9.40;;;4.00;;
58470;SDS011;44258;51.288;12.068;2023-03-21T10:48:19;11.48;;;4.22;;
58470;SDS011;44258;51.288;12.068;2023-03-21T10:50:48;9.93;;;4.10;;
58470;SDS011;44258;51.288;12.068;2023-03-21T10:53:18;12.50;;;4.20;;
58470;SDS011;44258;51.288;12.068;2023-03-21T10:55:49;10.82;;;4.25;;
58470;SDS011;44258;51.288;12.068;2023-03-21T10:58:20;10.57;;;4.40;;
58470;SDS011;44258;51.288;12.068;2023-03-21T11:00:53;10.30;;;4.32;;
58470;SDS011;44258;51.288;12.068;2023-03-21T11:03:23;11.93;;;4.50;;
58470;SDS011;44258;51.288;12.068;2023-03-21T11:05:58;10.13;;;3.92;;
58470;SDS011;44258;51.288;12.068;2023-03-21T11:08:28;12.38;;;4.13;;
58470;SDS011;44258;51.288;12.068;2023-03-21T11:10:59;10.43;;;3.90;;
58470;SDS011;44258;51.288;12.068;2023-03-21T11:13:32;8.07;;;3.45;;
58470;SDS011;44258;51.288;12.068;2023-03-21T11:16:04;10.63;;;3.97;;
58470;SDS011;44258;51.288;12.068;2023-03-21T11:18:32;11.20;;;3.85;;
58470;SDS011;44258;51.288;12.068;2023-03-21T11:21:08;11.00;;;4.43;;
58470;SDS011;44258;51.288;12.068;2023-03-21T11:23:37;14.90;;;3.65;;
58470;SDS011;44258;51.288;12.068;2023-03-21T11:26:09;8.60;;;3.42;;
58470;SDS011;44258;51.288;12.068;2023-03-21T11:28:41;8.38;;;3.08;;
58470;SDS011;44258;51.288;12.068;2023-03-21T11:31:08;6.57;;;2.53;;
58470;SDS011;44258;51.288;12.068;2023-03-21T11:33:36;7.47;;;2.63;;
58470;SDS011;44258;51.288;12.068;2023-03-21T11:39:11;6.82;;;2.63;;
58470;SDS011;44258;51.288;12.068;2023-03-21T11:41:40;7.65;;;2.40;;
58470;SDS011;44258;51.288;12.068;2023-03-21T11:44:22;8.32;;;3.15;;
58470;SDS011;44258;51.288;12.068;2023-03-21T11:46:52;7.80;;;2.70;;
58470;SDS011;44258;51.288;12.068;2023-03-21T11:49:19;8.13;;;2.83;;
58470;SDS011;44258;51.288;12.068;2023-03-21T11:51:47;6.97;;;2.83;;
58470;SDS011;44258;51.288;12.068;2023-03-21T11:54:27;6.03;;;2.38;;
58470;SDS011;44258;51.288;12.068;2023-03-21T11:57:05;9.07;;;2.58;;
58470;SDS011;44258;51.288;12.068;2023-03-21T11:59:40;7.72;;;2.50;;
58470;SDS011;44258;51.288;12.068;2023-03-21T12:02:21;6.07;;;2.45;;
58470;SDS011;44258;51.288;12.068;2023-03-21T12:04:56;6.72;;;2.03;;
58470;SDS011;44258;51.288;12.068;2023-03-21T12:07:32;5.13;;;2.25;;
58470;SDS011;44258;51.288;12.068;2023-03-21T12:13:18;6.65;;;2.05;;
58470;SDS011;44258;51.288;12.068;2023-03-21T12:15:57;7.43;;;2.35;;
58470;SDS011;44258;51.288;12.068;2023-03-21T12:18:44;6.47;;;2.17;;
58470;SDS011;44258;51.288;12.068;2023-03-21T12:21:24;5.00;;;1.92;;
58470;SDS011;44258;51.288;12.068;2023-03-21T12:26:37;5.75;;;2.15;;
58470;SDS011;44258;51.288;12.068;2023-03-21T12:29:16;6.95;;;2.35;;
58470;SDS011;44258;51.288;12.068;2023-03-21T12:32:07;5.95;;;2.22;;
58470;SDS011;44258;51.288;12.068;2023-03-21T12:35:02;5.50;;;2.30;;
58470;SDS011;44258;51.288;12.068;2023-03-21T12:37:39;7.55;;;2.10;;
58470;SDS011;44258;51.288;12.068;2023-03-21T12:40:11;5.82;;;2.50;;
58470;SDS011;44258;51.288;12.068;2023-03-21T12:42:52;6.65;;;2.72;;
58470;SDS011;44258;51.288;12.068;2023-03-21T12:45:33;6.10;;;2.75;;
58470;SDS011;44258;51.288;12.068;2023-03-21T12:48:10;7.72;;;2.67;;
58470;SDS011;44258;51.288;12.068;2023-03-21T12:50:44;7.22;;;3.05;;
58470;SDS011;44258;51.288;12.068;2023-03-21T12:53:21;7.32;;;3.03;;
58470;SDS011;44258;51.288;12.068;2023-03-21T12:55:55;7.53;;;2.72;;
58470;SDS011;44258;51.288;12.068;2023-03-21T12:58:31;5.57;;;2.58;;
58470;SDS011;44258;51.288;12.068;2023-03-21T13:01:04;6.28;;;2.28;;
58470;SDS011;44258;51.288;12.068;2023-03-21T13:03:33;5.80;;;2.30;;
58470;SDS011;44258;51.288;12.068;2023-03-21T13:06:03;7.18;;;2.45;;
58470;SDS011;44258;51.288;12.068;2023-03-21T13:08:32;7.40;;;2.55;;
58470;SDS011;44258;51.288;12.068;2023-03-21T13:11:02;9.00;;;2.63;;
58470;SDS011;44258;51.288;12.068;2023-03-21T13:13:34;7.65;;;2.70;;
58470;SDS011;44258;51.288;12.068;2023-03-21T13:16:08;6.60;;;2.58;;
58470;SDS011;44258;51.288;12.068;2023-03-21T13:18:49;9.27;;;2.70;;
58470;SDS011;44258;51.288;12.068;2023-03-21T13:21:26;5.18;;;2.28;;
58470;SDS011;44258;51.288;12.068;2023-03-21T13:24:04;4.43;;;2.10;;
58470;SDS011;44258;51.288;12.068;2023-03-21T13:26:44;3.72;;;1.92;;
58470;SDS011;44258;51.288;12.068;2023-03-21T13:29:23;4.90;;;1.70;;
58470;SDS011;44258;51.288;12.068;2023-03-21T13:31:53;5.28;;;1.75;;
58470;SDS011;44258;51.288;12.068;2023-03-21T13:34:24;4.22;;;1.70;;
58470;SDS011;44258;51.288;12.068;2023-03-21T13:36:51;4.07;;;1.77;;
58470;SDS011;44258;51.288;12.068;2023-03-21T13:39:23;6.10;;;1.92;;
58470;SDS011;44258;51.288;12.068;2023-03-21T13:41:51;7.45;;;2.28;;
58470;SDS011;44258;51.288;12.068;2023-03-21T13:44:23;7.57;;;2.40;;
58470;SDS011;44258;51.288;12.068;2023-03-21T13:46:58;6.68;;;2.45;;
58470;SDS011;44258;51.288;12.068;2023-03-21T13:49:27;4.97;;;1.92;;
58470;SDS011;44258;51.288;12.068;2023-03-21T13:51:58;4.05;;;1.90;;
58470;SDS011;44258;51.288;12.068;2023-03-21T13:54:41;4.75;;;2.05;;
58470;SDS011;44258;51.288;12.068;2023-03-21T14:02:52;7.63;;;2.67;;
58470;SDS011;44258;51.288;12.068;2023-03-21T14:05:21;8.75;;;2.85;;
58470;SDS011;44258;51.288;12.068;2023-03-21T14:07:50;8.45;;;2.25;;
58470;SDS011;44258;51.288;12.068;2023-03-21T14:10:21;5.20;;;1.75;;
58470;SDS011;44258;51.288;12.068;2023-03-21T14:12:54;4.57;;;1.85;;
58470;SDS011;44258;51.288;12.068;2023-03-21T14:15:23;5.90;;;2.00;;
58470;SDS011;44258;51.288;12.068;2023-03-21T14:17:53;5.28;;;1.85;;
58470;SDS011;44258;51.288;12.068;2023-03-21T14:20:23;7.32;;;2.17;;
58470;SDS011;44258;51.288;12.068;2023-03-21T14:22:52;6.03;;;2.15;;
58470;SDS011;44258;51.288;12.068;2023-03-21T14:25:20;4.90;;;1.88;;
58470;SDS011;44258;51.288;12.068;2023-03-21T14:27:49;9.63;;;3.05;;
58470;SDS011;44258;51.288;12.068;2023-03-21T14:30:20;5.78;;;2.22;;
58470;SDS011;44258;51.288;12.068;2023-03-21T14:32:51;5.95;;;2.08;;
58470;SDS011;44258;51.288;12.068;2023-03-21T14:35:20;6.38;;;2.10;;
58470;SDS011;44258;51.288;12.068;2023-03-21T14:37:47;7.47;;;2.20;;
58470;SDS011;44258;51.288;12.068;2023-03-21T14:40:18;5.65;;;2.10;;
58470;SDS011;44258;51.288;12.068;2023-03-21T14:42:48;5.75;;;2.20;;
58470;SDS011;44258;51.288;12.068;2023-03-21T14:45:19;5.88;;;2.22;;
58470;SDS011;44258;51.288;12.068;2023-03-21T14:47:56;6.03;;;2.67;;
58470;SDS011;44258;51.288;12.068;2023-03-21T14:50:26;8.13;;;2.40;;
58470;SDS011;44258;51.288;12.068;2023-03-21T14:52:57;7.10;;;2.20;;
58470;SDS011;44258;51.288;12.068;2023-03-21T14:55:24;6.45;;;2.30;;
58470;SDS011;44258;51.288;12.068;2023-03-21T14:57:53;7.00;;;2.20;;
58470;SDS011;44258;51.288;12.068;2023-03-21T15:00:22;6.20;;;2.30;;
58470;SDS011;44258;51.288;12.068;2023-03-21T15:02:51;6.00;;;2.28;;
58470;SDS011;44258;51.288;12.068;2023-03-21T15:05:24;5.53;;;2.22;;
58470;SDS011;44258;51.288;12.068;2023-03-21T15:07:52;5.85;;;2.30;;
58470;SDS011;44258;51.288;12.068;2023-03-21T15:10:20;6.97;;;2.40;;